createdAt,value
2022-11-19T00:01:34.229Z,4.30
2022-11-19T00:04:01.912Z,4.30
2022-11-19T00:06:29.602Z,4.30
2022-11-19T00:08:57.311Z,4.31
2022-11-19T00:11:41.825Z,4.30
2022-11-19T00:14:12.363Z,4.25
2022-11-19T00:16:40.459Z,4.20
2022-11-19T00:19:09.488Z,4.20
2022-11-19T00:21:37.122Z,4.19
2022-11-19T00:24:05.130Z,4.18
2022-11-19T00:26:34.193Z,4.17
2022-11-19T00:29:01.852Z,4.16
2022-11-19T00:31:29.504Z,4.14
2022-11-19T00:33:57.227Z,4.14
2022-11-19T00:36:25.082Z,4.10
2022-11-19T00:38:52.734Z,4.07
2022-11-19T00:41:20.491Z,4.06
2022-11-19T00:43:49.869Z,4.04
2022-11-19T00:46:19.444Z,4.03
2022-11-19T00:48:48.494Z,4.04
2022-11-19T00:51:17.061Z,4.01
2022-11-19T00:53:44.905Z,4.01
2022-11-19T00:56:13.991Z,3.99
2022-11-19T00:58:42.201Z,4.00
2022-11-19T01:01:12.361Z,4.00
2022-11-19T01:03:41.524Z,3.99
2022-11-19T01:06:11.150Z,4.01
2022-11-19T01:08:40.191Z,4.01
2022-11-19T01:11:09.641Z,4.00
2022-11-19T01:13:37.991Z,3.99
2022-11-19T01:16:07.166Z,3.95
2022-11-19T01:18:37.081Z,3.96
2022-11-19T01:21:04.833Z,3.95
2022-11-19T01:23:33.360Z,3.97
2022-11-19T01:26:01.836Z,3.95
2022-11-19T01:28:29.573Z,3.92
2022-11-19T01:30:57.280Z,3.91
2022-11-19T01:33:25.184Z,3.88
2022-11-19T01:35:59.524Z,3.87
2022-11-19T01:38:27.582Z,3.83
2022-11-19T01:40:56.268Z,3.82
2022-11-19T01:43:42.683Z,3.77
2022-11-19T01:46:11.073Z,3.77
2022-11-19T01:48:40.333Z,3.73
2022-11-19T01:51:14.775Z,3.74
2022-11-19T01:53:45.741Z,3.72
2022-11-19T01:56:14.287Z,3.71
2022-11-19T01:58:44.879Z,3.72
2022-11-19T02:01:12.650Z,3.74
2022-11-19T02:03:41.330Z,3.72
2022-11-19T02:06:09.386Z,3.72
2022-11-19T02:08:41.520Z,3.74
2022-11-19T02:11:40.939Z,3.71
2022-11-19T02:14:25.983Z,3.69
2022-11-19T02:17:06.491Z,3.68
2022-11-19T02:19:58.344Z,3.61
2022-11-19T02:22:48.333Z,3.59
2022-11-19T02:25:34.497Z,3.57
2022-11-19T02:28:25.668Z,3.55
2022-11-19T02:31:00.488Z,3.50
2022-11-19T02:33:35.751Z,3.46
2022-11-19T02:36:08.264Z,3.40
2022-11-19T02:38:40.428Z,3.41
2022-11-19T02:41:29.391Z,3.40
2022-11-19T02:44:17.356Z,3.39
2022-11-19T02:46:48.228Z,3.40
2022-11-19T02:49:17.818Z,3.38
2022-11-19T02:51:46.197Z,3.35
2022-11-19T02:54:13.857Z,3.33
2022-11-19T02:56:48.899Z,3.31
2022-11-19T02:59:37.308Z,3.29
2022-11-19T03:02:27.472Z,3.28
2022-11-19T03:04:56.792Z,3.30
2022-11-19T03:07:24.517Z,3.31
2022-11-19T03:09:57.112Z,3.31
2022-11-19T03:12:32.501Z,3.28
2022-11-19T03:15:25.470Z,3.27
2022-11-19T03:18:03.937Z,3.23
2022-11-19T03:20:36.296Z,3.20
2022-11-19T03:23:09.791Z,3.16
2022-11-19T03:25:42.660Z,3.15
2022-11-19T03:28:15.939Z,3.12
2022-11-19T03:30:46.503Z,3.07
2022-11-19T03:33:21.065Z,3.03
2022-11-19T03:35:52.229Z,3.01
2022-11-19T03:38:24.365Z,3.02
2022-11-19T03:40:55.349Z,2.99
2022-11-19T03:43:27.740Z,2.99
2022-11-19T03:45:59.063Z,2.92
2022-11-19T03:48:31.760Z,2.91
2022-11-19T03:51:04.956Z,2.89
2022-11-19T03:53:32.572Z,2.84
2022-11-19T03:56:04.062Z,2.77
2022-11-19T03:58:38.303Z,2.78
2022-11-19T04:01:06.161Z,2.73
2022-11-19T04:03:35.288Z,2.71
2022-11-19T04:06:03.638Z,2.69
2022-11-19T04:08:31.362Z,2.68
2022-11-19T04:13:28.845Z,2.63
2022-11-19T04:15:56.489Z,2.64
2022-11-19T04:18:24.128Z,2.60
2022-11-19T04:20:53.091Z,2.58
2022-11-19T04:23:20.809Z,2.53
2022-11-19T04:25:48.549Z,2.51
2022-11-19T04:28:16.187Z,2.49
2022-11-19T04:30:44.092Z,2.49
2022-11-19T04:33:11.740Z,2.51
2022-11-19T04:35:39.397Z,2.49
2022-11-19T04:38:08.402Z,2.48
2022-11-19T04:40:36.068Z,2.44
2022-11-19T04:43:03.757Z,2.40
2022-11-19T04:45:31.410Z,2.40
2022-11-19T04:47:59.105Z,2.41
2022-11-19T04:50:26.784Z,2.41
2022-11-19T04:52:54.444Z,2.42
2022-11-19T04:55:23.555Z,2.39
2022-11-19T04:57:52.949Z,2.37
2022-11-19T05:00:20.977Z,2.35
2022-11-19T05:02:48.636Z,2.36
2022-11-19T05:05:16.360Z,2.34
2022-11-19T05:07:43.981Z,2.31
2022-11-19T05:10:11.900Z,2.29
2022-11-19T05:12:40.925Z,2.29
2022-11-19T05:15:09.808Z,2.28
2022-11-19T05:17:37.484Z,2.25
2022-11-19T05:20:05.894Z,2.26
2022-11-19T05:22:33.554Z,2.27
2022-11-19T05:25:01.235Z,2.23
2022-11-19T05:27:28.901Z,2.18
2022-11-19T05:29:57.923Z,2.16
2022-11-19T05:32:25.592Z,2.14
2022-11-19T05:34:53.239Z,2.12
2022-11-19T05:37:20.895Z,2.09
2022-11-19T05:39:48.507Z,2.08
2022-11-19T05:42:16.150Z,2.08
2022-11-19T05:44:43.802Z,2.06
2022-11-19T05:47:12.920Z,2.04
2022-11-19T05:49:40.550Z,2.04
2022-11-19T05:52:08.217Z,2.04
2022-11-19T05:54:35.915Z,2.02
2022-11-19T05:57:03.593Z,1.99
2022-11-19T05:59:31.282Z,1.96
2022-11-19T06:01:58.922Z,1.95
2022-11-19T06:04:28.082Z,1.95
2022-11-19T06:06:56.589Z,1.92
2022-11-19T06:09:24.291Z,1.92
2022-11-19T06:11:51.927Z,1.88
2022-11-19T06:14:22.185Z,1.85
2022-11-19T06:16:49.996Z,1.81
2022-11-19T06:19:18.147Z,1.78
2022-11-19T06:21:47.840Z,1.78
2022-11-19T06:24:15.912Z,1.75
2022-11-19T06:26:44.018Z,1.70
2022-11-19T06:29:13.967Z,1.68
2022-11-19T06:31:41.639Z,1.66
2022-11-19T06:34:09.748Z,1.65
2022-11-19T06:36:41.160Z,1.62
2022-11-19T06:39:12.812Z,1.58
2022-11-19T06:41:40.471Z,1.53
2022-11-19T06:44:08.136Z,1.49
2022-11-19T06:46:35.856Z,1.47
2022-11-19T06:49:05.720Z,1.44
2022-11-19T06:51:33.523Z,1.41
2022-11-19T06:54:01.181Z,1.37
2022-11-19T06:56:30.198Z,1.37
2022-11-19T06:58:59.007Z,1.35
2022-11-19T07:01:26.774Z,1.33
2022-11-19T07:03:54.517Z,1.29
2022-11-19T07:06:22.177Z,1.28
2022-11-19T07:08:49.803Z,1.24
2022-11-19T07:11:29.399Z,1.24
2022-11-19T07:13:59.718Z,1.23
2022-11-19T07:16:30.377Z,1.22
2022-11-19T07:18:59.627Z,1.21
2022-11-19T07:21:28.259Z,1.18
2022-11-19T07:23:56.049Z,1.18
2022-11-19T07:26:24.185Z,1.20
2022-11-19T07:28:52.281Z,1.19
2022-11-19T07:31:21.505Z,1.17
2022-11-19T07:33:49.150Z,1.16
2022-11-19T07:36:18.523Z,1.15
2022-11-19T07:38:47.001Z,1.17
2022-11-19T07:41:32.820Z,1.19
2022-11-19T07:44:00.462Z,1.20
2022-11-19T07:46:29.435Z,1.23
2022-11-19T07:48:58.633Z,1.16
2022-11-19T07:51:27.484Z,1.18
2022-11-19T07:53:57.307Z,1.18
2022-11-19T07:56:25.070Z,1.19
2022-11-19T07:58:53.152Z,1.18
2022-11-19T08:01:23.046Z,1.15
2022-11-19T08:03:56.244Z,1.17
2022-11-19T08:06:26.169Z,1.15
2022-11-19T08:08:55.787Z,1.15
2022-11-19T08:11:23.975Z,1.15
2022-11-19T08:13:51.665Z,1.13
2022-11-19T08:16:39.704Z,1.14
2022-11-19T08:19:09.832Z,1.12
2022-11-19T08:21:42.222Z,1.11
2022-11-19T08:24:10.652Z,1.09
2022-11-19T08:26:39.099Z,1.04
2022-11-19T08:29:11.618Z,1.00
2022-11-19T08:31:43.784Z,0.93
2022-11-19T08:34:12.919Z,0.91
2022-11-19T08:36:40.624Z,0.88
2022-11-19T08:39:08.321Z,0.88
2022-11-19T08:41:53.508Z,0.82
2022-11-19T08:44:21.706Z,0.79
2022-11-19T08:46:50.542Z,0.81
2022-11-19T08:49:19.796Z,0.84
2022-11-19T08:51:47.443Z,0.89
2022-11-19T08:54:15.091Z,0.93
2022-11-19T08:56:42.712Z,0.91
2022-11-19T08:59:10.474Z,0.93
2022-11-19T09:01:38.134Z,0.96
2022-11-19T09:04:06.223Z,1.04
2022-11-19T09:06:36.242Z,1.15
2022-11-19T09:09:04.611Z,1.29
2022-11-19T09:11:32.564Z,1.42
2022-11-19T09:14:00.344Z,1.56
2022-11-19T09:16:28.251Z,1.69
2022-11-19T09:18:56.032Z,1.86
2022-11-19T09:21:23.765Z,1.98
2022-11-19T09:23:52.732Z,2.12
2022-11-19T09:26:20.463Z,2.22
2022-11-19T09:28:49.328Z,2.31
2022-11-19T09:31:18.612Z,2.45
2022-11-19T09:33:48.335Z,2.61
2022-11-19T09:36:17.688Z,2.79
2022-11-19T09:38:45.608Z,2.91
2022-11-19T09:41:33.494Z,3.07
2022-11-19T09:44:13.392Z,3.20
2022-11-19T09:46:48.773Z,3.31
2022-11-19T09:49:23.092Z,3.40
2022-11-19T09:52:04.525Z,3.51
2022-11-19T09:54:33.088Z,3.61
2022-11-19T09:57:04.615Z,3.69
2022-11-19T09:59:36.400Z,3.89
2022-11-19T10:02:14.151Z,4.08
2022-11-19T10:04:41.877Z,4.27
2022-11-19T10:07:19.079Z,4.45
2022-11-19T10:09:59.007Z,4.60
2022-11-19T10:12:42.564Z,4.72
2022-11-19T10:15:21.541Z,4.84
2022-11-19T10:18:01.046Z,4.98
2022-11-19T10:20:44.873Z,5.15
2022-11-19T10:23:17.992Z,5.34
2022-11-19T10:25:47.489Z,5.49
2022-11-19T10:28:20.541Z,5.66
2022-11-19T10:30:50.952Z,5.81
2022-11-19T10:33:24.909Z,6.00
2022-11-19T10:35:57.938Z,6.24
2022-11-19T10:38:34.365Z,6.47
2022-11-19T10:41:09.673Z,6.68
2022-11-19T10:43:46.300Z,6.86
2022-11-19T10:46:18.076Z,7.01
2022-11-19T10:48:50.135Z,7.17
2022-11-19T10:51:23.779Z,7.29
2022-11-19T10:53:52.453Z,7.54
2022-11-19T10:56:22.928Z,7.73
2022-11-19T10:58:55.908Z,7.96
2022-11-19T11:01:31.270Z,8.15
2022-11-19T11:04:06.992Z,8.33
2022-11-19T11:06:52.248Z,8.52
2022-11-19T11:09:30.591Z,8.80
2022-11-19T11:12:18.077Z,9.05
2022-11-19T11:14:54.825Z,9.47
2022-11-19T11:17:25.928Z,9.83
2022-11-19T11:19:59.307Z,10.23
2022-11-19T11:22:27.308Z,10.74
2022-11-19T11:24:55.600Z,11.20
2022-11-19T11:27:28.116Z,11.69
2022-11-19T11:30:08.552Z,12.19
2022-11-19T11:32:36.185Z,12.75
2022-11-19T11:35:08.245Z,13.12
2022-11-19T11:37:37.750Z,13.40
2022-11-19T11:40:07.246Z,13.56
2022-11-19T11:42:34.937Z,13.62
2022-11-19T11:45:03.035Z,13.98
2022-11-19T11:47:37.619Z,14.28
2022-11-19T11:50:09.972Z,14.43
2022-11-19T11:52:41.798Z,14.72
2022-11-19T11:55:16.402Z,14.98
2022-11-19T11:58:02.813Z,15.19
2022-11-19T12:00:35.447Z,15.35
2022-11-19T12:03:06.709Z,15.45
2022-11-19T12:05:45.427Z,15.49
2022-11-19T12:08:26.727Z,15.36
2022-11-19T12:11:01.624Z,15.56
2022-11-19T12:13:47.269Z,15.53
2022-11-19T12:16:23.672Z,15.58
2022-11-19T12:19:09.999Z,15.64
2022-11-19T12:21:47.146Z,15.61
2022-11-19T12:24:32.314Z,15.47
2022-11-19T12:27:11.769Z,15.65
2022-11-19T12:29:47.164Z,15.76
2022-11-19T12:32:30.720Z,15.68
2022-11-19T12:35:17.261Z,15.60
2022-11-19T12:38:09.524Z,15.63
2022-11-19T12:40:47.571Z,15.55
2022-11-19T12:43:34.869Z,15.44
2022-11-19T12:46:14.549Z,15.47
2022-11-19T12:49:03.010Z,15.40
2022-11-19T12:51:46.271Z,15.41
2022-11-19T12:54:35.142Z,15.49
2022-11-19T12:57:19.695Z,15.42
2022-11-19T13:00:06.756Z,15.33
2022-11-19T13:02:39.101Z,15.17
2022-11-19T13:05:13.407Z,15.19
2022-11-19T13:07:48.046Z,15.12
2022-11-19T13:10:19.920Z,15.34
2022-11-19T13:12:51.098Z,15.33
2022-11-19T13:15:23.837Z,15.41
2022-11-19T13:17:54.607Z,15.62
2022-11-19T13:20:26.882Z,15.64
2022-11-19T13:23:00.778Z,15.79
2022-11-19T13:25:32.561Z,15.72
2022-11-19T13:28:04.486Z,15.94
2022-11-19T13:30:35.006Z,15.64
2022-11-19T13:33:12.200Z,15.60
2022-11-19T13:35:48.136Z,15.46
2022-11-19T13:38:23.301Z,15.48
2022-11-19T13:40:57.859Z,15.71
2022-11-19T13:43:44.252Z,15.45
2022-11-19T13:46:22.918Z,15.30
2022-11-19T13:48:57.420Z,15.15
2022-11-19T13:51:31.040Z,15.05
2022-11-19T13:54:03.556Z,15.00
2022-11-19T13:56:43.756Z,14.87
2022-11-19T13:59:29.289Z,14.64
2022-11-19T14:02:09.192Z,14.63
2022-11-19T14:05:04.552Z,14.50
2022-11-19T14:07:53.471Z,14.41
2022-11-19T14:10:30.565Z,14.12
2022-11-19T14:13:23.500Z,13.67
2022-11-19T14:16:19.565Z,13.36
2022-11-19T14:19:07.863Z,13.16
2022-11-19T14:22:06.929Z,13.04
2022-11-19T14:25:13.485Z,12.78
2022-11-19T14:27:42.997Z,12.51
2022-11-19T14:30:19.675Z,12.18
2022-11-19T14:32:50.425Z,11.77
2022-11-19T14:35:41.510Z,11.51
2022-11-19T14:38:29.828Z,11.43
2022-11-19T14:41:06.160Z,11.43
2022-11-19T14:44:07.435Z,11.27
2022-11-19T14:46:36.131Z,11.07
2022-11-19T14:49:07.520Z,10.97
2022-11-19T14:51:38.931Z,10.71
2022-11-19T14:54:19.213Z,10.36
2022-11-19T14:56:49.543Z,10.21
2022-11-19T14:59:24.634Z,9.87
2022-11-19T15:01:58.976Z,9.57
2022-11-19T15:04:33.122Z,9.32
2022-11-19T15:07:01.681Z,9.06
2022-11-19T15:10:03.391Z,8.79
2022-11-19T15:12:48.485Z,8.57
2022-11-19T15:15:38.300Z,8.29
2022-11-19T15:18:31.462Z,8.18
2022-11-19T15:21:12.758Z,7.92
2022-11-19T15:23:48.272Z,7.82
2022-11-19T15:26:23.214Z,7.61
2022-11-19T15:29:01.914Z,7.48
2022-11-19T15:31:48.386Z,7.26
2022-11-19T15:35:03.860Z,7.19
2022-11-19T15:37:40.445Z,6.92
2022-11-19T15:40:13.533Z,6.76
2022-11-19T15:42:46.124Z,6.60
2022-11-19T15:45:17.865Z,6.51
2022-11-19T15:47:52.376Z,6.27
2022-11-19T15:50:22.190Z,6.14
2022-11-19T15:52:59.385Z,6.03
2022-11-19T15:55:30.544Z,5.88
2022-11-19T15:58:03.304Z,5.78
2022-11-19T16:00:31.954Z,5.71
2022-11-19T16:03:03.774Z,5.57
2022-11-19T16:05:32.770Z,5.45
2022-11-19T16:08:06.534Z,5.50
2022-11-19T16:10:36.513Z,5.38
2022-11-19T16:13:37.687Z,5.29
2022-11-19T16:16:32.003Z,5.23
2022-11-19T16:19:01.051Z,5.15
2022-11-19T16:21:32.832Z,5.18
2022-11-19T16:24:20.162Z,5.19
2022-11-19T16:26:48.957Z,5.21
2022-11-19T16:29:18.536Z,5.14
2022-11-19T16:31:46.746Z,4.92
2022-11-19T16:34:23.371Z,4.80
2022-11-19T16:36:51.720Z,4.71
2022-11-19T16:39:22.353Z,4.59
2022-11-19T16:42:12.581Z,4.49
2022-11-19T16:44:44.256Z,4.38
2022-11-19T16:47:20.717Z,4.37
2022-11-19T16:50:00.054Z,4.29
2022-11-19T16:52:42.005Z,4.21
2022-11-19T16:55:28.818Z,4.08
2022-11-19T16:57:58.701Z,4.09
2022-11-19T17:00:31.658Z,4.20
2022-11-19T17:02:59.407Z,4.26
2022-11-19T17:05:29.641Z,4.29
2022-11-19T17:08:05.558Z,4.23
2022-11-19T17:10:34.734Z,4.21
2022-11-19T17:13:04.144Z,4.18
2022-11-19T17:15:38.513Z,4.14
2022-11-19T17:18:15.855Z,4.06
2022-11-19T17:21:04.016Z,4.06
2022-11-19T17:23:33.968Z,4.00
2022-11-19T17:26:03.567Z,3.75
2022-11-19T17:28:38.312Z,3.55
2022-11-19T17:31:14.630Z,3.40
2022-11-19T17:33:52.654Z,3.27
2022-11-19T17:36:22.137Z,3.24
2022-11-19T17:38:50.514Z,3.18
2022-11-19T17:41:40.804Z,3.04
2022-11-19T17:44:31.072Z,3.09
2022-11-19T17:46:58.871Z,3.08
2022-11-19T17:49:34.366Z,3.12
2022-11-19T17:52:03.693Z,3.10
2022-11-19T17:54:32.235Z,3.09
2022-11-19T17:57:00.131Z,3.12
2022-11-19T17:59:27.825Z,3.07
2022-11-19T18:01:56.524Z,2.99
2022-11-19T18:04:24.245Z,2.89
2022-11-19T18:06:51.892Z,2.88
2022-11-19T18:09:21.085Z,2.80
2022-11-19T18:11:48.856Z,2.72
2022-11-19T18:14:16.476Z,2.58
2022-11-19T18:16:44.716Z,2.42
2022-11-19T18:19:15.539Z,2.38
2022-11-19T18:21:43.562Z,2.37
2022-11-19T18:24:13.071Z,2.37
2022-11-19T18:26:42.134Z,2.30
2022-11-19T18:29:09.837Z,2.26
2022-11-19T18:31:43.140Z,2.15
2022-11-19T18:34:14.268Z,2.12
2022-11-19T18:36:42.002Z,2.07
2022-11-19T18:39:09.701Z,1.99
2022-11-19T18:41:37.504Z,1.94
2022-11-19T18:44:24.402Z,1.91
2022-11-19T18:46:52.179Z,1.75
2022-11-19T18:49:20.039Z,1.70
2022-11-19T18:51:47.794Z,1.66
2022-11-19T18:54:15.766Z,1.61
2022-11-19T18:56:43.380Z,1.57
2022-11-19T18:59:13.847Z,1.51
2022-11-19T19:01:41.541Z,1.49
2022-11-19T19:04:10.765Z,1.42
2022-11-19T19:06:38.404Z,1.36
2022-11-19T19:09:06.190Z,1.28
2022-11-19T19:11:51.464Z,1.21
2022-11-19T19:14:22.517Z,1.18
2022-11-19T19:16:50.978Z,1.17
2022-11-19T19:19:20.257Z,1.06
2022-11-19T19:21:48.788Z,0.99
2022-11-19T19:24:16.481Z,0.96
2022-11-19T19:26:44.353Z,0.94
2022-11-19T19:29:12.739Z,0.90
2022-11-19T19:31:41.760Z,0.85
2022-11-19T19:34:09.409Z,0.82
2022-11-19T19:36:37.350Z,0.86
2022-11-19T19:39:05.355Z,0.89
2022-11-19T19:41:33.449Z,0.82
2022-11-19T19:44:03.708Z,0.82
2022-11-19T19:46:32.607Z,0.86
2022-11-19T19:49:01.617Z,0.86
2022-11-19T19:51:31.261Z,0.87
2022-11-19T19:53:59.590Z,0.92
2022-11-19T19:56:29.003Z,0.92
2022-11-19T19:58:58.633Z,0.90
2022-11-19T20:01:28.611Z,0.90
2022-11-19T20:04:02.616Z,0.86
2022-11-19T20:06:30.749Z,0.84
2022-11-19T20:08:58.516Z,0.80
2022-11-19T20:11:27.433Z,0.75
2022-11-19T20:13:56.569Z,0.67
2022-11-19T20:16:26.700Z,0.60
2022-11-19T20:18:55.494Z,0.48
2022-11-19T20:21:26.899Z,0.42
2022-11-19T20:23:55.404Z,0.35
2022-11-19T20:26:24.220Z,0.29
2022-11-19T20:28:55.549Z,0.28
2022-11-19T20:31:23.210Z,0.28
2022-11-19T20:33:54.476Z,0.30
2022-11-19T20:36:24.467Z,0.28
2022-11-19T20:38:54.128Z,0.26
2022-11-19T20:41:40.527Z,0.25
2022-11-19T20:44:23.250Z,0.19
2022-11-19T20:46:53.134Z,0.11
2022-11-19T20:49:23.704Z,0.09
2022-11-19T20:51:52.749Z,0.07
2022-11-19T20:54:22.969Z,0.06
2022-11-19T20:56:51.534Z,0.04
2022-11-19T20:59:19.712Z,-0.02
2022-11-19T21:01:49.380Z,-0.05
2022-11-19T21:04:17.799Z,-0.06
2022-11-19T21:06:45.959Z,-0.05
2022-11-19T21:09:14.867Z,-0.09
2022-11-19T21:11:44.027Z,-0.13
2022-11-19T21:14:12.733Z,-0.18
2022-11-19T21:16:40.943Z,-0.24
2022-11-19T21:19:09.896Z,-0.31
2022-11-19T21:21:37.582Z,-0.33
2022-11-19T21:24:05.837Z,-0.38
2022-11-19T21:26:33.531Z,-0.40
2022-11-19T21:29:02.713Z,-0.43
2022-11-19T21:31:39.768Z,-0.49
2022-11-19T21:34:08.468Z,-0.58
2022-11-19T21:36:37.097Z,-0.62
2022-11-19T21:39:05.102Z,-0.68
2022-11-19T21:41:33.112Z,-0.72
2022-11-19T21:44:02.588Z,-0.76
2022-11-19T21:46:30.379Z,-0.79
2022-11-19T21:48:58.117Z,-0.79
2022-11-19T21:51:26.055Z,-0.81
2022-11-19T21:53:55.344Z,-0.81
2022-11-19T21:56:24.116Z,-0.78
2022-11-19T21:58:52.397Z,-0.77
2022-11-19T22:01:21.526Z,-0.73
2022-11-19T22:03:49.642Z,-0.75
2022-11-19T22:06:17.335Z,-0.78
2022-11-19T22:08:45.166Z,-0.78
2022-11-19T22:11:33.788Z,-0.75
2022-11-19T22:14:03.752Z,-0.79
2022-11-19T22:16:35.113Z,-0.81
2022-11-19T22:19:02.801Z,-0.79
2022-11-19T22:21:30.535Z,-0.83
2022-11-19T22:23:58.974Z,-0.88
2022-11-19T22:26:26.944Z,-0.92
2022-11-19T22:28:54.605Z,-0.89
2022-11-19T22:31:22.576Z,-0.90
2022-11-19T22:33:53.653Z,-0.93
2022-11-19T22:36:22.602Z,-0.94
2022-11-19T22:38:51.060Z,-0.96
2022-11-19T22:41:20.041Z,-1.05
2022-11-19T22:43:48.099Z,-1.09
2022-11-19T22:46:16.262Z,-1.14
2022-11-19T22:48:44.157Z,-1.17
2022-11-19T22:51:15.756Z,-1.16
2022-11-19T22:53:43.844Z,-1.17
2022-11-19T22:56:14.315Z,-1.17
2022-11-19T22:58:42.452Z,-1.18
2022-11-19T23:01:16.491Z,-1.19
2022-11-19T23:03:44.326Z,-1.20
2022-11-19T23:06:13.711Z,-1.24
2022-11-19T23:08:41.609Z,-1.30
2022-11-19T23:11:09.542Z,-1.35
2022-11-19T23:13:39.176Z,-1.35
2022-11-19T23:16:09.177Z,-1.42
2022-11-19T23:18:38.695Z,-1.46
2022-11-19T23:21:08.787Z,-1.51
2022-11-19T23:23:38.183Z,-1.57
2022-11-19T23:26:07.365Z,-1.64
2022-11-19T23:28:37.291Z,-1.70
2022-11-19T23:31:05.959Z,-1.76
2022-11-19T23:33:33.672Z,-1.77
2022-11-19T23:36:05.784Z,-1.74
2022-11-19T23:38:33.910Z,-1.71
2022-11-19T23:41:04.087Z,-1.74
2022-11-19T23:43:32.380Z,-1.80
2022-11-19T23:46:05.784Z,-1.85
2022-11-19T23:48:33.941Z,-1.89
2022-11-19T23:51:03.102Z,-1.89
2022-11-19T23:53:31.059Z,-1.88
2022-11-19T23:55:59.074Z,-1.90
2022-11-19T23:58:28.127Z,-1.91
